LFRC/CER METAR and TAF weather

Enter ICAO airport designator
Station Type Date Time Source
LFRC METAR 2020/04/07 15:30 UTC NOAA

LFRC 071530Z AUTO 08008KT CAVOK 13/07 Q1026


Station Type Date Time Source
LFRC Decoded METAR 2020/04/07 15:30 UTC NOAA

Cherbourg / Maupertus, France (LFRC) 49-39N 001-28W 139M
Apr 07, 2020 - 11:30 AM EDT / 2020.04.07 1530 UTC
Wind: from the E (080 degrees) at 9 MPH (8 KT):0
Visibility: greater than 7 mile(s):0
Temperature: 55 F (13 C)
Dew Point: 44 F (7 C)
Relative Humidity: 66%
Pressure (altimeter): 30.30 in. Hg (1026 hPa)
ob: LFRC 071530Z AUTO 08008KT CAVOK 13/07 Q1026
cycle: 15

Station Type Date Time Source
LFRC TAF 2008/10/12 17:07 UTC NOAA

TAF
AMD LFRC 121707Z 121721 CNL

Example: see airport list